sensor_id;sensor_type;location;lat;lon;timestamp;P1;durP1;ratioP1;P2;durP2;ratioP2
52898;SDS011;38763;53.096;6.062;2022-10-30T00:00:19;27.48;;;11.80;;
52898;SDS011;38763;53.096;6.062;2022-10-30T00:02:45;28.10;;;11.98;;
52898;SDS011;38763;53.096;6.062;2022-10-30T00:05:12;31.83;;;11.68;;
52898;SDS011;38763;53.096;6.062;2022-10-30T00:07:37;35.80;;;11.68;;
52898;SDS011;38763;53.096;6.062;2022-10-30T00:10:03;27.60;;;12.10;;
52898;SDS011;38763;53.096;6.062;2022-10-30T00:12:29;26.63;;;11.35;;
52898;SDS011;38763;53.096;6.062;2022-10-30T00:14:54;23.73;;;11.38;;
52898;SDS011;38763;53.096;6.062;2022-10-30T00:17:20;27.33;;;10.80;;
52898;SDS011;38763;53.096;6.062;2022-10-30T00:19:46;25.73;;;11.77;;
52898;SDS011;38763;53.096;6.062;2022-10-30T00:22:11;31.15;;;12.75;;
52898;SDS011;38763;53.096;6.062;2022-10-30T00:24:37;30.65;;;11.57;;
52898;SDS011;38763;53.096;6.062;2022-10-30T00:27:03;25.27;;;11.50;;
52898;SDS011;38763;53.096;6.062;2022-10-30T00:29:28;23.30;;;12.32;;
52898;SDS011;38763;53.096;6.062;2022-10-30T00:31:54;25.27;;;10.75;;
52898;SDS011;38763;53.096;6.062;2022-10-30T00:34:19;27.55;;;11.38;;
52898;SDS011;38763;53.096;6.062;2022-10-30T00:36:45;28.00;;;11.48;;
52898;SDS011;38763;53.096;6.062;2022-10-30T00:39:10;23.38;;;11.25;;
52898;SDS011;38763;53.096;6.062;2022-10-30T00:41:36;25.55;;;12.35;;
52898;SDS011;38763;53.096;6.062;2022-10-30T00:52:44;29.50;;;10.85;;
52898;SDS011;38763;53.096;6.062;2022-10-30T00:55:19;31.75;;;11.40;;
52898;SDS011;38763;53.096;6.062;2022-10-30T00:57:51;28.25;;;12.18;;
52898;SDS011;38763;53.096;6.062;2022-10-30T01:00:18;26.13;;;11.23;;
52898;SDS011;38763;53.096;6.062;2022-10-30T01:02:46;28.80;;;11.70;;
52898;SDS011;38763;53.096;6.062;2022-10-30T01:05:13;29.98;;;12.23;;
52898;SDS011;38763;53.096;6.062;2022-10-30T01:07:41;24.90;;;11.80;;
52898;SDS011;38763;53.096;6.062;2022-10-30T01:10:07;25.90;;;12.25;;
52898;SDS011;38763;53.096;6.062;2022-10-30T01:12:33;31.08;;;11.75;;
52898;SDS011;38763;53.096;6.062;2022-10-30T01:14:59;22.52;;;11.70;;
52898;SDS011;38763;53.096;6.062;2022-10-30T01:33:53;25.73;;;11.73;;
52898;SDS011;38763;53.096;6.062;2022-10-30T01:36:38;36.53;;;12.23;;
52898;SDS011;38763;53.096;6.062;2022-10-30T01:39:20;27.00;;;12.30;;
52898;SDS011;38763;53.096;6.062;2022-10-30T01:41:48;28.05;;;12.32;;
52898;SDS011;38763;53.096;6.062;2022-10-30T01:44:15;25.60;;;11.98;;
52898;SDS011;38763;53.096;6.062;2022-10-30T01:57:53;30.80;;;13.30;;
52898;SDS011;38763;53.096;6.062;2022-10-30T02:00:52;26.52;;;12.50;;
52898;SDS011;38763;53.096;6.062;2022-10-30T02:03:21;31.67;;;12.52;;
52898;SDS011;38763;53.096;6.062;2022-10-30T02:05:48;23.45;;;11.73;;
52898;SDS011;38763;53.096;6.062;2022-10-30T02:08:15;25.88;;;11.88;;
52898;SDS011;38763;53.096;6.062;2022-10-30T02:10:41;27.42;;;12.30;;
52898;SDS011;38763;53.096;6.062;2022-10-30T02:13:10;27.20;;;11.82;;
52898;SDS011;38763;53.096;6.062;2022-10-30T02:15:36;26.90;;;12.13;;
52898;SDS011;38763;53.096;6.062;2022-10-30T02:18:02;30.92;;;12.32;;
52898;SDS011;38763;53.096;6.062;2022-10-30T02:20:28;26.17;;;13.25;;
52898;SDS011;38763;53.096;6.062;2022-10-30T02:22:54;24.83;;;11.80;;
52898;SDS011;38763;53.096;6.062;2022-10-30T02:25:20;27.00;;;12.88;;
52898;SDS011;38763;53.096;6.062;2022-10-30T02:27:46;26.60;;;12.65;;
52898;SDS011;38763;53.096;6.062;2022-10-30T02:30:12;27.00;;;12.60;;
52898;SDS011;38763;53.096;6.062;2022-10-30T02:32:38;33.45;;;13.30;;
52898;SDS011;38763;53.096;6.062;2022-10-30T02:35:04;26.08;;;12.90;;
52898;SDS011;38763;53.096;6.062;2022-10-30T02:37:30;31.23;;;13.20;;
52898;SDS011;38763;53.096;6.062;2022-10-30T02:40:00;31.52;;;13.40;;
52898;SDS011;38763;53.096;6.062;2022-10-30T02:42:26;29.10;;;13.10;;
52898;SDS011;38763;53.096;6.062;2022-10-30T02:44:52;28.95;;;12.95;;
52898;SDS011;38763;53.096;6.062;2022-10-30T02:47:18;25.55;;;12.57;;
52898;SDS011;38763;53.096;6.062;2022-10-30T02:49:43;27.23;;;12.63;;
52898;SDS011;38763;53.096;6.062;2022-10-30T02:52:09;27.92;;;13.63;;
52898;SDS011;38763;53.096;6.062;2022-10-30T02:54:35;35.63;;;13.13;;
52898;SDS011;38763;53.096;6.062;2022-10-30T02:57:00;26.63;;;12.90;;
52898;SDS011;38763;53.096;6.062;2022-10-30T02:59:26;31.33;;;13.93;;
52898;SDS011;38763;53.096;6.062;2022-10-30T03:01:53;29.92;;;12.90;;
52898;SDS011;38763;53.096;6.062;2022-10-30T03:04:18;28.90;;;13.77;;
52898;SDS011;38763;53.096;6.062;2022-10-30T03:06:44;27.50;;;13.40;;
52898;SDS011;38763;53.096;6.062;2022-10-30T03:09:09;30.42;;;13.98;;
52898;SDS011;38763;53.096;6.062;2022-10-30T03:11:35;30.35;;;13.48;;
52898;SDS011;38763;53.096;6.062;2022-10-30T03:14:01;31.73;;;13.40;;
52898;SDS011;38763;53.096;6.062;2022-10-30T03:16:26;26.20;;;13.57;;
52898;SDS011;38763;53.096;6.062;2022-10-30T03:18:56;33.53;;;13.38;;
52898;SDS011;38763;53.096;6.062;2022-10-30T03:21:22;31.83;;;13.85;;
52898;SDS011;38763;53.096;6.062;2022-10-30T03:23:50;32.47;;;13.55;;
52898;SDS011;38763;53.096;6.062;2022-10-30T03:26:16;31.17;;;14.10;;
52898;SDS011;38763;53.096;6.062;2022-10-30T03:28:42;27.52;;;13.60;;
52898;SDS011;38763;53.096;6.062;2022-10-30T03:31:09;32.97;;;13.75;;
52898;SDS011;38763;53.096;6.062;2022-10-30T03:33:40;36.35;;;13.82;;
52898;SDS011;38763;53.096;6.062;2022-10-30T03:36:07;27.95;;;13.55;;
52898;SDS011;38763;53.096;6.062;2022-10-30T03:38:34;28.73;;;14.90;;
52898;SDS011;38763;53.096;6.062;2022-10-30T03:41:00;30.90;;;14.27;;
52898;SDS011;38763;53.096;6.062;2022-10-30T03:43:25;31.05;;;14.40;;
52898;SDS011;38763;53.096;6.062;2022-10-30T03:45:52;31.23;;;14.30;;
52898;SDS011;38763;53.096;6.062;2022-10-30T03:48:21;26.52;;;13.77;;
52898;SDS011;38763;53.096;6.062;2022-10-30T03:50:47;27.48;;;13.40;;
52898;SDS011;38763;53.096;6.062;2022-10-30T03:53:14;32.58;;;14.18;;
52898;SDS011;38763;53.096;6.062;2022-10-30T03:55:40;33.13;;;13.88;;
52898;SDS011;38763;53.096;6.062;2022-10-30T03:58:06;33.45;;;15.07;;
52898;SDS011;38763;53.096;6.062;2022-10-30T04:00:32;31.95;;;14.63;;
52898;SDS011;38763;53.096;6.062;2022-10-30T04:02:58;32.78;;;14.20;;
52898;SDS011;38763;53.096;6.062;2022-10-30T04:05:25;33.08;;;14.93;;
52898;SDS011;38763;53.096;6.062;2022-10-30T04:07:58;27.95;;;14.35;;
52898;SDS011;38763;53.096;6.062;2022-10-30T04:10:25;35.85;;;14.32;;
52898;SDS011;38763;53.096;6.062;2022-10-30T04:12:52;31.90;;;14.73;;
52898;SDS011;38763;53.096;6.062;2022-10-30T04:15:23;41.53;;;14.85;;
52898;SDS011;38763;53.096;6.062;2022-10-30T04:17:49;49.13;;;15.90;;
52898;SDS011;38763;53.096;6.062;2022-10-30T04:20:16;34.92;;;15.13;;
52898;SDS011;38763;53.096;6.062;2022-10-30T04:22:42;37.72;;;15.13;;
52898;SDS011;38763;53.096;6.062;2022-10-30T04:25:08;30.92;;;14.90;;
52898;SDS011;38763;53.096;6.062;2022-10-30T04:27:43;32.72;;;14.82;;
52898;SDS011;38763;53.096;6.062;2022-10-30T04:30:09;45.58;;;14.85;;
52898;SDS011;38763;53.096;6.062;2022-10-30T04:32:38;33.05;;;14.57;;
52898;SDS011;38763;53.096;6.062;2022-10-30T04:35:13;35.15;;;15.68;;
52898;SDS011;38763;53.096;6.062;2022-10-30T04:37:41;38.58;;;15.25;;
52898;SDS011;38763;53.096;6.062;2022-10-30T04:40:07;42.63;;;16.08;;
52898;SDS011;38763;53.096;6.062;2022-10-30T04:42:33;36.28;;;15.32;;
52898;SDS011;38763;53.096;6.062;2022-10-30T04:44:59;33.45;;;15.52;;
52898;SDS011;38763;53.096;6.062;2022-10-30T04:47:27;31.20;;;14.77;;
52898;SDS011;38763;53.096;6.062;2022-10-30T04:49:53;39.33;;;15.10;;
52898;SDS011;38763;53.096;6.062;2022-10-30T04:52:19;36.80;;;15.82;;
52898;SDS011;38763;53.096;6.062;2022-10-30T04:54:44;30.77;;;14.63;;
52898;SDS011;38763;53.096;6.062;2022-10-30T04:57:10;36.70;;;15.10;;
52898;SDS011;38763;53.096;6.062;2022-10-30T04:59:36;29.30;;;14.45;;
52898;SDS011;38763;53.096;6.062;2022-10-30T05:02:01;33.63;;;14.52;;
52898;SDS011;38763;53.096;6.062;2022-10-30T05:04:27;30.63;;;14.55;;
52898;SDS011;38763;53.096;6.062;2022-10-30T05:06:52;33.75;;;14.77;;
52898;SDS011;38763;53.096;6.062;2022-10-30T05:09:18;31.67;;;14.98;;
52898;SDS011;38763;53.096;6.062;2022-10-30T05:11:44;35.08;;;15.18;;
52898;SDS011;38763;53.096;6.062;2022-10-30T05:14:10;33.45;;;15.55;;
52898;SDS011;38763;53.096;6.062;2022-10-30T05:16:35;38.85;;;15.38;;
52898;SDS011;38763;53.096;6.062;2022-10-30T05:19:01;33.38;;;15.02;;
52898;SDS011;38763;53.096;6.062;2022-10-30T05:21:27;38.30;;;15.13;;
52898;SDS011;38763;53.096;6.062;2022-10-30T05:23:52;30.65;;;15.65;;
52898;SDS011;38763;53.096;6.062;2022-10-30T05:26:18;40.40;;;14.70;;
52898;SDS011;38763;53.096;6.062;2022-10-30T05:28:44;34.97;;;15.32;;
52898;SDS011;38763;53.096;6.062;2022-10-30T05:31:09;39.45;;;16.45;;
52898;SDS011;38763;53.096;6.062;2022-10-30T05:33:35;35.35;;;15.38;;
52898;SDS011;38763;53.096;6.062;2022-10-30T05:36:00;35.67;;;16.02;;
52898;SDS011;38763;53.096;6.062;2022-10-30T05:38:26;35.08;;;15.55;;
52898;SDS011;38763;53.096;6.062;2022-10-30T05:40:51;41.10;;;16.02;;
52898;SDS011;38763;53.096;6.062;2022-10-30T05:43:17;39.08;;;16.42;;
52898;SDS011;38763;53.096;6.062;2022-10-30T05:45:43;41.25;;;17.48;;
52898;SDS011;38763;53.096;6.062;2022-10-30T05:48:08;44.63;;;16.23;;
52898;SDS011;38763;53.096;6.062;2022-10-30T05:50:34;35.35;;;16.88;;
52898;SDS011;38763;53.096;6.062;2022-10-30T05:53:01;43.33;;;18.02;;
52898;SDS011;38763;53.096;6.062;2022-10-30T05:55:28;34.90;;;16.08;;
52898;SDS011;38763;53.096;6.062;2022-10-30T05:57:54;41.22;;;17.15;;
52898;SDS011;38763;53.096;6.062;2022-10-30T06:00:24;37.20;;;16.60;;
52898;SDS011;38763;53.096;6.062;2022-10-30T06:02:51;39.17;;;17.55;;
52898;SDS011;38763;53.096;6.062;2022-10-30T06:05:16;42.90;;;17.65;;
52898;SDS011;38763;53.096;6.062;2022-10-30T06:07:42;38.33;;;17.50;;
52898;SDS011;38763;53.096;6.062;2022-10-30T06:10:08;37.13;;;17.65;;
52898;SDS011;38763;53.096;6.062;2022-10-30T06:12:33;36.55;;;17.30;;
52898;SDS011;38763;53.096;6.062;2022-10-30T06:14:59;38.95;;;17.55;;
52898;SDS011;38763;53.096;6.062;2022-10-30T06:17:24;36.78;;;17.10;;
52898;SDS011;38763;53.096;6.062;2022-10-30T06:19:50;40.78;;;18.35;;
52898;SDS011;38763;53.096;6.062;2022-10-30T06:22:16;39.30;;;17.92;;
52898;SDS011;38763;53.096;6.062;2022-10-30T06:24:41;46.45;;;19.83;;
52898;SDS011;38763;53.096;6.062;2022-10-30T06:27:07;46.35;;;18.58;;
52898;SDS011;38763;53.096;6.062;2022-10-30T06:29:32;36.33;;;17.58;;
52898;SDS011;38763;53.096;6.062;2022-10-30T06:31:58;37.67;;;17.98;;
52898;SDS011;38763;53.096;6.062;2022-10-30T06:34:24;41.42;;;18.40;;
52898;SDS011;38763;53.096;6.062;2022-10-30T06:36:50;37.40;;;17.48;;
52898;SDS011;38763;53.096;6.062;2022-10-30T06:39:15;36.10;;;18.00;;
52898;SDS011;38763;53.096;6.062;2022-10-30T06:41:41;37.67;;;18.00;;
52898;SDS011;38763;53.096;6.062;2022-10-30T06:44:06;41.05;;;18.83;;
52898;SDS011;38763;53.096;6.062;2022-10-30T06:46:32;47.47;;;18.13;;
52898;SDS011;38763;53.096;6.062;2022-10-30T06:48:57;46.70;;;18.90;;
52898;SDS011;38763;53.096;6.062;2022-10-30T06:51:23;44.67;;;17.50;;
52898;SDS011;38763;53.096;6.062;2022-10-30T06:53:49;40.55;;;19.60;;
52898;SDS011;38763;53.096;6.062;2022-10-30T06:56:14;41.63;;;17.38;;
52898;SDS011;38763;53.096;6.062;2022-10-30T06:58:40;40.90;;;17.90;;
52898;SDS011;38763;53.096;6.062;2022-10-30T07:01:06;38.95;;;17.73;;
52898;SDS011;38763;53.096;6.062;2022-10-30T07:03:33;42.58;;;17.77;;
52898;SDS011;38763;53.096;6.062;2022-10-30T07:05:59;40.95;;;18.25;;
52898;SDS011;38763;53.096;6.062;2022-10-30T07:08:25;40.85;;;18.05;;
52898;SDS011;38763;53.096;6.062;2022-10-30T07:10:51;38.30;;;17.92;;
52898;SDS011;38763;53.096;6.062;2022-10-30T07:13:17;35.97;;;17.23;;
52898;SDS011;38763;53.096;6.062;2022-10-30T07:15:42;39.03;;;18.15;;
52898;SDS011;38763;53.096;6.062;2022-10-30T07:18:09;33.95;;;17.85;;
52898;SDS011;38763;53.096;6.062;2022-10-30T07:20:35;40.00;;;18.02;;
52898;SDS011;38763;53.096;6.062;2022-10-30T07:23:01;40.63;;;18.17;;
52898;SDS011;38763;53.096;6.062;2022-10-30T07:25:27;38.20;;;17.23;;
52898;SDS011;38763;53.096;6.062;2022-10-30T07:27:53;37.67;;;18.00;;
52898;SDS011;38763;53.096;6.062;2022-10-30T07:30:21;46.45;;;17.67;;
52898;SDS011;38763;53.096;6.062;2022-10-30T07:32:59;57.35;;;18.75;;
52898;SDS011;38763;53.096;6.062;2022-10-30T07:35:25;37.30;;;17.45;;
52898;SDS011;38763;53.096;6.062;2022-10-30T07:37:51;37.85;;;16.90;;
52898;SDS011;38763;53.096;6.062;2022-10-30T07:40:17;39.65;;;17.20;;
52898;SDS011;38763;53.096;6.062;2022-10-30T07:42:43;40.17;;;17.58;;
52898;SDS011;38763;53.096;6.062;2022-10-30T07:45:08;38.65;;;17.60;;
52898;SDS011;38763;53.096;6.062;2022-10-30T07:47:38;35.22;;;16.60;;
52898;SDS011;38763;53.096;6.062;2022-10-30T07:50:07;38.78;;;16.77;;
52898;SDS011;38763;53.096;6.062;2022-10-30T07:52:33;36.13;;;16.40;;
52898;SDS011;38763;53.096;6.062;2022-10-30T07:54:59;36.13;;;16.13;;
52898;SDS011;38763;53.096;6.062;2022-10-30T07:57:24;31.05;;;15.68;;
52898;SDS011;38763;53.096;6.062;2022-10-30T07:59:50;35.55;;;16.75;;
52898;SDS011;38763;53.096;6.062;2022-10-30T08:02:16;35.58;;;16.33;;
52898;SDS011;38763;53.096;6.062;2022-10-30T08:04:41;32.78;;;15.55;;
52898;SDS011;38763;53.096;6.062;2022-10-30T08:07:07;41.88;;;15.48;;
52898;SDS011;38763;53.096;6.062;2022-10-30T08:09:33;30.38;;;15.25;;
52898;SDS011;38763;53.096;6.062;2022-10-30T08:11:58;32.40;;;15.27;;
52898;SDS011;38763;53.096;6.062;2022-10-30T08:14:24;34.75;;;14.95;;
52898;SDS011;38763;53.096;6.062;2022-10-30T08:16:50;41.22;;;16.20;;
52898;SDS011;38763;53.096;6.062;2022-10-30T08:19:15;33.95;;;14.52;;
52898;SDS011;38763;53.096;6.062;2022-10-30T08:21:41;34.75;;;15.68;;
52898;SDS011;38763;53.096;6.062;2022-10-30T08:24:07;33.63;;;15.80;;
52898;SDS011;38763;53.096;6.062;2022-10-30T08:26:33;34.80;;;14.50;;
52898;SDS011;38763;53.096;6.062;2022-10-30T08:28:59;33.08;;;13.85;;
52898;SDS011;38763;53.096;6.062;2022-10-30T08:31:25;29.38;;;14.63;;
52898;SDS011;38763;53.096;6.062;2022-10-30T08:33:51;32.72;;;15.02;;
52898;SDS011;38763;53.096;6.062;2022-10-30T08:36:16;32.65;;;15.02;;
52898;SDS011;38763;53.096;6.062;2022-10-30T08:38:42;33.20;;;14.48;;
52898;SDS011;38763;53.096;6.062;2022-10-30T08:41:07;29.10;;;14.57;;
52898;SDS011;38763;53.096;6.062;2022-10-30T08:43:33;30.30;;;14.50;;
52898;SDS011;38763;53.096;6.062;2022-10-30T08:45:59;30.33;;;14.75;;
52898;SDS011;38763;53.096;6.062;2022-10-30T08:48:25;27.65;;;14.63;;
52898;SDS011;38763;53.096;6.062;2022-10-30T08:50:50;29.23;;;13.93;;
52898;SDS011;38763;53.096;6.062;2022-10-30T08:53:16;30.55;;;14.43;;
52898;SDS011;38763;53.096;6.062;2022-10-30T08:55:42;27.30;;;13.90;;
52898;SDS011;38763;53.096;6.062;2022-10-30T08:58:07;29.25;;;14.57;;
52898;SDS011;38763;53.096;6.062;2022-10-30T09:00:33;30.48;;;14.57;;
52898;SDS011;38763;53.096;6.062;2022-10-30T09:02:59;33.20;;;14.88;;
52898;SDS011;38763;53.096;6.062;2022-10-30T09:05:25;30.15;;;15.00;;
52898;SDS011;38763;53.096;6.062;2022-10-30T09:07:54;31.25;;;15.07;;
52898;SDS011;38763;53.096;6.062;2022-10-30T09:10:24;28.65;;;14.20;;
52898;SDS011;38763;53.096;6.062;2022-10-30T09:12:57;33.33;;;15.50;;
52898;SDS011;38763;53.096;6.062;2022-10-30T09:15:24;31.13;;;15.50;;
52898;SDS011;38763;53.096;6.062;2022-10-30T09:17:54;29.70;;;13.57;;
52898;SDS011;38763;53.096;6.062;2022-10-30T09:20:20;28.00;;;14.82;;
52898;SDS011;38763;53.096;6.062;2022-10-30T09:22:46;43.47;;;15.07;;
52898;SDS011;38763;53.096;6.062;2022-10-30T09:25:12;28.58;;;14.45;;
52898;SDS011;38763;53.096;6.062;2022-10-30T09:27:38;32.95;;;14.68;;
52898;SDS011;38763;53.096;6.062;2022-10-30T09:30:04;33.47;;;14.05;;
52898;SDS011;38763;53.096;6.062;2022-10-30T09:32:30;30.23;;;14.57;;
52898;SDS011;38763;53.096;6.062;2022-10-30T09:34:55;32.38;;;16.27;;
52898;SDS011;38763;53.096;6.062;2022-10-30T09:37:21;32.63;;;14.70;;
52898;SDS011;38763;53.096;6.062;2022-10-30T09:39:50;27.98;;;14.13;;
52898;SDS011;38763;53.096;6.062;2022-10-30T09:42:20;34.30;;;14.02;;
52898;SDS011;38763;53.096;6.062;2022-10-30T09:45:01;33.00;;;14.73;;
52898;SDS011;38763;53.096;6.062;2022-10-30T09:47:37;28.65;;;15.27;;
52898;SDS011;38763;53.096;6.062;2022-10-30T09:52:58;31.52;;;14.93;;
52898;SDS011;38763;53.096;6.062;2022-10-30T09:55:35;33.22;;;15.05;;
52898;SDS011;38763;53.096;6.062;2022-10-30T09:58:13;32.88;;;15.25;;
52898;SDS011;38763;53.096;6.062;2022-10-30T10:06:12;28.55;;;13.68;;
52898;SDS011;38763;53.096;6.062;2022-10-30T10:11:18;28.85;;;13.57;;
52898;SDS011;38763;53.096;6.062;2022-10-30T10:14:06;28.02;;;13.90;;
52898;SDS011;38763;53.096;6.062;2022-10-30T10:16:39;36.97;;;13.40;;
52898;SDS011;38763;53.096;6.062;2022-10-30T10:21:57;29.17;;;14.00;;
52898;SDS011;38763;53.096;6.062;2022-10-30T10:24:25;25.77;;;12.93;;
52898;SDS011;38763;53.096;6.062;2022-10-30T10:29:43;28.95;;;13.15;;
52898;SDS011;38763;53.096;6.062;2022-10-30T10:38:00;30.70;;;14.45;;
52898;SDS011;38763;53.096;6.062;2022-10-30T10:41:09;33.90;;;13.90;;
52898;SDS011;38763;53.096;6.062;2022-10-30T10:46:57;31.33;;;13.90;;
52898;SDS011;38763;53.096;6.062;2022-10-30T10:52:18;26.58;;;13.30;;
52898;SDS011;38763;53.096;6.062;2022-10-30T10:54:48;27.08;;;13.48;;
52898;SDS011;38763;53.096;6.062;2022-10-30T10:57:25;31.92;;;13.35;;
52898;SDS011;38763;53.096;6.062;2022-10-30T11:00:20;29.02;;;13.10;;
52898;SDS011;38763;53.096;6.062;2022-10-30T11:03:01;31.90;;;13.35;;
52898;SDS011;38763;53.096;6.062;2022-10-30T11:08:30;32.35;;;12.25;;
52898;SDS011;38763;53.096;6.062;2022-10-30T11:10:57;32.47;;;12.80;;
52898;SDS011;38763;53.096;6.062;2022-10-30T11:13:26;26.33;;;12.00;;
52898;SDS011;38763;53.096;6.062;2022-10-30T11:18:44;30.08;;;11.88;;
52898;SDS011;38763;53.096;6.062;2022-10-30T11:21:17;27.15;;;11.95;;
52898;SDS011;38763;53.096;6.062;2022-10-30T11:23:46;27.30;;;12.50;;
52898;SDS011;38763;53.096;6.062;2022-10-30T11:28:45;23.25;;;10.77;;
52898;SDS011;38763;53.096;6.062;2022-10-30T11:31:35;29.48;;;11.18;;
52898;SDS011;38763;53.096;6.062;2022-10-30T11:36:43;21.77;;;10.57;;
52898;SDS011;38763;53.096;6.062;2022-10-30T11:39:10;23.30;;;10.60;;
52898;SDS011;38763;53.096;6.062;2022-10-30T11:41:42;28.83;;;11.10;;
52898;SDS011;38763;53.096;6.062;2022-10-30T11:44:21;26.55;;;10.63;;
52898;SDS011;38763;53.096;6.062;2022-10-30T11:46:49;25.35;;;11.23;;
52898;SDS011;38763;53.096;6.062;2022-10-30T11:49:30;26.67;;;11.30;;
52898;SDS011;38763;53.096;6.062;2022-10-30T11:52:10;22.58;;;10.85;;
52898;SDS011;38763;53.096;6.062;2022-10-30T11:54:39;30.20;;;12.02;;
52898;SDS011;38763;53.096;6.062;2022-10-30T11:57:19;23.27;;;10.88;;
52898;SDS011;38763;53.096;6.062;2022-10-30T11:59:54;22.67;;;10.70;;
52898;SDS011;38763;53.096;6.062;2022-10-30T12:04:51;24.58;;;9.73;;
52898;SDS011;38763;53.096;6.062;2022-10-30T12:09:51;22.75;;;11.35;;
52898;SDS011;38763;53.096;6.062;2022-10-30T12:12:37;24.42;;;11.75;;
52898;SDS011;38763;53.096;6.062;2022-10-30T12:17:37;26.08;;;12.73;;
52898;SDS011;38763;53.096;6.062;2022-10-30T12:20:04;26.38;;;11.35;;
52898;SDS011;38763;53.096;6.062;2022-10-30T12:22:31;30.63;;;13.73;;
52898;SDS011;38763;53.096;6.062;2022-10-30T12:24:59;27.73;;;12.57;;
52898;SDS011;38763;53.096;6.062;2022-10-30T12:27:29;27.48;;;11.20;;
52898;SDS011;38763;53.096;6.062;2022-10-30T12:30:09;21.17;;;11.35;;
52898;SDS011;38763;53.096;6.062;2022-10-30T12:32:49;26.00;;;12.10;;
52898;SDS011;38763;53.096;6.062;2022-10-30T12:35:38;29.48;;;12.35;;
52898;SDS011;38763;53.096;6.062;2022-10-30T12:38:16;28.80;;;11.93;;
52898;SDS011;38763;53.096;6.062;2022-10-30T12:41:03;25.38;;;11.82;;
52898;SDS011;38763;53.096;6.062;2022-10-30T12:43:56;30.30;;;12.45;;
52898;SDS011;38763;53.096;6.062;2022-10-30T12:49:20;25.27;;;11.50;;
52898;SDS011;38763;53.096;6.062;2022-10-30T12:52:40;21.33;;;11.45;;
52898;SDS011;38763;53.096;6.062;2022-10-30T12:57:48;32.67;;;11.32;;
52898;SDS011;38763;53.096;6.062;2022-10-30T13:00:27;27.73;;;11.50;;
52898;SDS011;38763;53.096;6.062;2022-10-30T13:03:01;22.20;;;11.15;;
52898;SDS011;38763;53.096;6.062;2022-10-30T13:05:51;24.73;;;11.02;;
52898;SDS011;38763;53.096;6.062;2022-10-30T13:08:33;26.00;;;11.40;;
52898;SDS011;38763;53.096;6.062;2022-10-30T13:11:08;25.45;;;11.18;;
52898;SDS011;38763;53.096;6.062;2022-10-30T13:13:42;22.55;;;12.00;;
52898;SDS011;38763;53.096;6.062;2022-10-30T13:16:17;26.20;;;11.00;;
52898;SDS011;38763;53.096;6.062;2022-10-30T13:18:50;25.40;;;11.98;;
52898;SDS011;38763;53.096;6.062;2022-10-30T13:24:11;27.25;;;12.20;;
52898;SDS011;38763;53.096;6.062;2022-10-30T13:26:59;30.67;;;12.20;;
52898;SDS011;38763;53.096;6.062;2022-10-30T13:29:30;30.35;;;12.00;;
52898;SDS011;38763;53.096;6.062;2022-10-30T13:37:45;28.02;;;12.55;;
52898;SDS011;38763;53.096;6.062;2022-10-30T13:42:52;22.50;;;11.45;;
52898;SDS011;38763;53.096;6.062;2022-10-30T13:48:34;23.90;;;11.75;;
52898;SDS011;38763;53.096;6.062;2022-10-30T13:51:36;23.85;;;11.13;;
52898;SDS011;38763;53.096;6.062;2022-10-30T14:02:23;27.23;;;11.95;;
52898;SDS011;38763;53.096;6.062;2022-10-30T14:05:16;24.55;;;12.25;;
52898;SDS011;38763;53.096;6.062;2022-10-30T14:08:05;27.98;;;11.30;;
52898;SDS011;38763;53.096;6.062;2022-10-30T14:13:22;23.33;;;12.27;;
52898;SDS011;38763;53.096;6.062;2022-10-30T14:15:52;23.13;;;10.38;;
52898;SDS011;38763;53.096;6.062;2022-10-30T14:20:56;28.38;;;10.82;;
52898;SDS011;38763;53.096;6.062;2022-10-30T14:23:42;21.85;;;11.10;;
52898;SDS011;38763;53.096;6.062;2022-10-30T14:28:35;26.00;;;10.65;;
52898;SDS011;38763;53.096;6.062;2022-10-30T14:33:37;23.73;;;11.27;;
52898;SDS011;38763;53.096;6.062;2022-10-30T14:36:23;22.85;;;10.18;;
52898;SDS011;38763;53.096;6.062;2022-10-30T14:38:59;25.50;;;11.00;;
52898;SDS011;38763;53.096;6.062;2022-10-30T15:00:37;23.77;;;12.05;;
52898;SDS011;38763;53.096;6.062;2022-10-30T15:03:08;26.55;;;13.15;;
52898;SDS011;38763;53.096;6.062;2022-10-30T15:05:50;23.23;;;10.80;;
52898;SDS011;38763;53.096;6.062;2022-10-30T15:11:09;24.00;;;10.20;;
52898;SDS011;38763;53.096;6.062;2022-10-30T15:13:49;26.10;;;10.00;;
52898;SDS011;38763;53.096;6.062;2022-10-30T15:16:22;25.10;;;10.02;;
52898;SDS011;38763;53.096;6.062;2022-10-30T15:18:55;25.38;;;9.95;;
52898;SDS011;38763;53.096;6.062;2022-10-30T15:21:25;30.70;;;10.38;;
52898;SDS011;38763;53.096;6.062;2022-10-30T15:23:55;19.65;;;9.98;;
52898;SDS011;38763;53.096;6.062;2022-10-30T15:26:25;20.20;;;9.35;;
52898;SDS011;38763;53.096;6.062;2022-10-30T15:28:57;24.67;;;10.70;;
52898;SDS011;38763;53.096;6.062;2022-10-30T15:31:23;22.50;;;9.90;;
52898;SDS011;38763;53.096;6.062;2022-10-30T15:33:51;20.30;;;8.80;;
52898;SDS011;38763;53.096;6.062;2022-10-30T15:41:47;23.17;;;10.05;;
52898;SDS011;38763;53.096;6.062;2022-10-30T15:44:26;29.15;;;10.32;;
52898;SDS011;38763;53.096;6.062;2022-10-30T15:47:00;23.63;;;10.65;;
52898;SDS011;38763;53.096;6.062;2022-10-30T15:52:04;19.67;;;9.40;;
52898;SDS011;38763;53.096;6.062;2022-10-30T15:54:40;24.13;;;9.77;;
52898;SDS011;38763;53.096;6.062;2022-10-30T15:57:16;22.85;;;9.75;;
52898;SDS011;38763;53.096;6.062;2022-10-30T15:59:56;23.42;;;9.93;;
52898;SDS011;38763;53.096;6.062;2022-10-30T16:02:26;32.35;;;10.48;;
52898;SDS011;38763;53.096;6.062;2022-10-30T16:04:54;21.73;;;10.10;;
52898;SDS011;38763;53.096;6.062;2022-10-30T16:07:27;24.17;;;10.13;;
52898;SDS011;38763;53.096;6.062;2022-10-30T16:12:30;23.88;;;10.73;;
52898;SDS011;38763;53.096;6.062;2022-10-30T16:14:59;24.92;;;10.50;;
52898;SDS011;38763;53.096;6.062;2022-10-30T16:17:29;26.10;;;11.02;;
52898;SDS011;38763;53.096;6.062;2022-10-30T16:19:55;25.38;;;10.60;;
52898;SDS011;38763;53.096;6.062;2022-10-30T16:22:26;28.60;;;10.82;;
52898;SDS011;38763;53.096;6.062;2022-10-30T16:24:55;27.05;;;11.65;;
52898;SDS011;38763;53.096;6.062;2022-10-30T16:27:22;20.42;;;10.27;;
52898;SDS011;38763;53.096;6.062;2022-10-30T16:29:52;24.40;;;11.20;;
52898;SDS011;38763;53.096;6.062;2022-10-30T16:32:22;23.00;;;10.85;;
52898;SDS011;38763;53.096;6.062;2022-10-30T16:34:53;22.92;;;10.93;;
52898;SDS011;38763;53.096;6.062;2022-10-30T16:37:22;25.48;;;10.77;;
52898;SDS011;38763;53.096;6.062;2022-10-30T16:39:51;40.83;;;11.55;;
52898;SDS011;38763;53.096;6.062;2022-10-30T16:42:23;31.30;;;11.00;;
52898;SDS011;38763;53.096;6.062;2022-10-30T16:44:50;32.53;;;13.85;;
52898;SDS011;38763;53.096;6.062;2022-10-30T16:47:37;26.33;;;11.80;;
52898;SDS011;38763;53.096;6.062;2022-10-30T16:50:09;31.10;;;12.23;;
52898;SDS011;38763;53.096;6.062;2022-10-30T16:52:38;27.20;;;12.75;;
52898;SDS011;38763;53.096;6.062;2022-10-30T16:55:06;32.38;;;13.82;;
52898;SDS011;38763;53.096;6.062;2022-10-30T16:57:39;28.13;;;12.98;;
52898;SDS011;38763;53.096;6.062;2022-10-30T17:00:16;28.52;;;14.00;;
52898;SDS011;38763;53.096;6.062;2022-10-30T17:02:52;31.13;;;13.68;;
52898;SDS011;38763;53.096;6.062;2022-10-30T17:05:27;31.30;;;13.45;;
52898;SDS011;38763;53.096;6.062;2022-10-30T17:13:31;34.83;;;17.67;;